Time;durP1;ratioP1;P1;durP2;ratioP2;P2;SDS_P1;SDS_P2;PMS_P1;PMS_P2;Temp;Humidity;BMP_temperature;BMP_pressure;BME280_temperature;BME280_humidity;BME280_pressure;Samples;Min_cycle;Max_cycle;Signal;HPM_P1;HPM_P2
2022/06/26 00:01:58;;;;;;;4.88;4.47;;;22.80;64.40;;;;;;4913089;29;20127;-48
2022/06/26 00:04:25;;;;;;;7.10;6.15;;;22.80;64.20;;;;;;4911192;29;20461;-51
2022/06/26 00:06:55;;;;;;;6.10;5.05;;;22.70;64.10;;;;;;4914844;29;20052;-51
2022/06/26 00:09:22;;;;;;;6.82;5.22;;;22.70;64.30;;;;;;4915004;29;20091;-47
2022/06/26 00:11:54;;;;;;;6.18;5.40;;;22.70;64.60;;;;;;4910712;29;20441;-52
2022/06/26 00:14:23;;;;;;;5.38;4.88;;;22.70;64.30;;;;;;4914713;29;20111;-52
2022/06/26 00:16:52;;;;;;;6.75;5.07;;;22.60;64.20;;;;;;4914389;29;20047;-49
2022/06/26 00:19:20;;;;;;;6.95;4.85;;;22.60;64.40;;;;;;4912995;29;20100;-49
2022/06/26 00:21:51;;;;;;;6.82;4.72;;;22.60;65.00;;;;;;4910250;29;20122;-51
2022/06/26 00:24:18;;;;;;;6.00;5.40;;;22.60;64.80;;;;;;4914696;29;20040;-47
2022/06/26 00:26:44;;;;;;;6.22;5.40;;;22.60;65.20;;;;;;4914580;29;20048;-52
2022/06/26 00:29:14;;;;;;;7.80;5.20;;;22.50;64.90;;;;;;4908164;29;20041;-52
2022/06/26 00:31:41;;;;;;;5.65;5.07;;;22.50;64.90;;;;;;4911182;29;20500;-48
2022/06/26 00:34:10;;;;;;;6.43;5.15;;;22.40;64.50;;;;;;4914454;29;20040;-52
2022/06/26 00:36:38;;;;;;;7.10;5.15;;;22.40;64.50;;;;;;4914405;29;20040;-52
2022/06/26 00:39:05;;;;;;;7.60;5.63;;;22.30;64.70;;;;;;4910402;29;20041;-52
2022/06/26 00:41:35;;;;;;;5.97;5.10;;;22.30;64.70;;;;;;4921188;29;20126;-49
2022/06/26 00:44:13;;;;;;;6.45;5.40;;;22.30;65.10;;;;;;4914047;29;20048;-49
2022/06/26 00:46:40;;;;;;;7.03;5.13;;;22.30;65.70;;;;;;4911639;29;20567;-51
2022/06/26 00:49:12;;;;;;;5.97;5.28;;;22.20;64.80;;;;;;4913952;29;20127;-51
2022/06/26 00:51:43;;;;;;;5.68;5.18;;;22.20;65.00;;;;;;4904910;29;20052;-49
2022/06/26 00:54:15;;;;;;;5.63;5.05;;;22.10;64.80;;;;;;4905397;29;20139;-48
2022/06/26 00:56:47;;;;;;;5.80;5.30;;;22.10;65.60;;;;;;4910273;29;20056;-48
2022/06/26 00:59:17;;;;;;;6.03;5.22;;;22.00;65.10;;;;;;4909483;29;20087;-49
2022/06/26 01:01:46;;;;;;;5.93;5.45;;;22.00;65.20;;;;;;4907208;29;20044;-48
2022/06/26 01:04:13;;;;;;;6.80;5.72;;;21.90;65.50;;;;;;4918326;29;20404;-50
2022/06/26 01:06:48;;;;;;;7.53;5.45;;;21.90;65.70;;;;;;4915607;29;20044;-51
2022/06/26 01:09:15;;;;;;;5.80;5.20;;;21.80;66.00;;;;;;4921841;29;20048;-48
2022/06/26 01:11:45;;;;;;;6.25;5.40;;;21.90;66.00;;;;;;4917971;29;20044;-51
2022/06/26 01:14:12;;;;;;;5.82;5.32;;;21.80;66.50;;;;;;4918138;29;20127;-51
2022/06/26 01:16:43;;;;;;;5.78;5.22;;;21.80;66.30;;;;;;4922061;29;20140;-48
2022/06/26 01:19:14;;;;;;;5.88;5.30;;;21.80;66.70;;;;;;4912210;29;20048;-52
2022/06/26 01:21:43;;;;;;;5.70;5.30;;;21.80;66.40;;;;;;4911470;29;20048;-52
2022/06/26 01:24:14;;;;;;;6.25;5.65;;;21.80;66.90;;;;;;4915250;29;20052;-48
2022/06/26 01:26:44;;;;;;;6.38;5.78;;;21.80;66.90;;;;;;4913826;29;20036;-50
2022/06/26 01:29:19;;;;;;;5.95;5.43;;;21.80;66.40;;;;;;4912232;29;20040;-49
2022/06/26 01:31:50;;;;;;;9.32;6.13;;;21.90;66.90;;;;;;4916407;29;20120;-52
2022/06/26 01:34:17;;;;;;;6.10;5.50;;;21.80;66.40;;;;;;4916172;29;20088;-49
2022/06/26 01:36:44;;;;;;;6.63;5.50;;;21.80;66.60;;;;;;4914819;29;20040;-49
2022/06/26 01:39:11;;;;;;;6.50;5.90;;;21.90;66.80;;;;;;4908532;29;20052;-51
2022/06/26 01:41:38;;;;;;;6.43;5.65;;;21.90;66.90;;;;;;4931980;29;20637;-52
2022/06/26 01:44:07;;;;;;;7.97;6.07;;;21.90;66.90;;;;;;4901907;29;20588;-50
2022/06/26 01:46:36;;;;;;;6.07;5.47;;;21.90;66.80;;;;;;4913753;29;20055;-48
2022/06/26 01:49:03;;;;;;;6.45;5.95;;;21.90;66.80;;;;;;4908259;29;20131;-52
2022/06/26 01:51:35;;;;;;;6.40;5.80;;;22.00;66.90;;;;;;4931803;29;20099;-50
2022/06/26 01:54:06;;;;;;;5.78;5.28;;;22.00;66.80;;;;;;4914233;29;20115;-52
2022/06/26 01:56:34;;;;;;;8.07;6.45;;;22.00;67.10;;;;;;4922099;29;20048;-52
2022/06/26 01:59:03;;;;;;;6.97;6.38;;;22.00;66.80;;;;;;4908234;29;20154;-48
2022/06/26 02:01:39;;;;;;;7.20;6.50;;;21.90;66.70;;;;;;4915721;29;20058;-50
2022/06/26 02:04:08;;;;;;;6.38;5.78;;;22.00;66.70;;;;;;4902217;29;20041;-51
2022/06/26 02:06:37;;;;;;;6.97;5.97;;;21.90;66.70;;;;;;4916522;29;20441;-48
2022/06/26 02:13:36;;;;;;;7.43;6.30;;;22.00;66.70;;;;;;4908274;29;20071;-49
2022/06/26 02:14:46;;;;;;;7.32;6.60;;;21.90;66.40;;;;;;4913614;29;20059;-51
2022/06/26 02:17:15;;;;;;;6.47;5.88;;;21.90;66.60;;;;;;4908003;29;20059;-50
2022/06/26 02:19:42;;;;;;;6.68;6.07;;;21.90;66.70;;;;;;4917057;29;20044;-49
2022/06/26 02:22:11;;;;;;;6.53;5.93;;;21.90;66.80;;;;;;4921356;29;20051;-49
2022/06/26 02:24:44;;;;;;;6.35;5.85;;;21.90;66.80;;;;;;4911836;29;20509;-52
2022/06/26 02:27:17;;;;;;;7.30;6.55;;;21.90;66.70;;;;;;4923291;29;20048;-52
2022/06/26 02:29:47;;;;;;;9.35;6.30;;;21.90;66.50;;;;;;4916799;29;20043;-49
2022/06/26 02:32:14;;;;;;;7.90;6.22;;;21.80;66.30;;;;;;4909984;29;20052;-50
2022/06/26 02:34:41;;;;;;;7.18;6.40;;;21.80;66.50;;;;;;4916575;29;20033;-51
2022/06/26 02:37:10;;;;;;;7.22;6.15;;;21.80;66.60;;;;;;4915110;29;20044;-51
2022/06/26 02:39:37;;;;;;;7.45;6.45;;;21.70;66.60;;;;;;4897058;29;20048;-51
2022/06/26 02:42:06;;;;;;;8.50;6.90;;;21.70;66.70;;;;;;4907548;29;20909;-50
2022/06/26 02:44:43;;;;;;;7.20;6.03;;;21.70;66.90;;;;;;4907072;29;20048;-49
2022/06/26 02:47:14;;;;;;;6.90;6.10;;;21.70;66.90;;;;;;4915177;29;20060;-52
2022/06/26 02:49:43;;;;;;;6.30;5.70;;;21.70;67.00;;;;;;4912774;29;20056;-52
2022/06/26 02:52:12;;;;;;;6.30;5.70;;;21.70;67.10;;;;;;4909499;29;20467;-52
2022/06/26 02:54:42;;;;;;;7.25;6.00;;;21.70;67.20;;;;;;4921256;29;20036;-51
2022/06/26 02:57:10;;;;;;;6.10;5.43;;;21.70;67.10;;;;;;4899008;29;20052;-52
2022/06/26 02:59:39;;;;;;;6.95;5.22;;;21.70;66.90;;;;;;4896202;29;20056;-52
2022/06/26 03:02:08;;;;;;;5.55;4.97;;;21.70;66.70;;;;;;4886686;29;20080;-47
2022/06/26 03:04:42;;;;;;;5.53;4.68;;;21.80;67.40;;;;;;4925834;23;20051;-47
2022/06/26 03:07:18;;;;;;;4.22;3.83;;;21.80;66.80;;;;;;4912340;29;20045;-48
2022/06/26 03:09:53;;;;;;;4.15;3.75;;;21.80;66.60;;;;;;4896484;29;20054;-48
2022/06/26 03:12:20;;;;;;;5.32;4.00;;;21.70;66.20;;;;;;4878902;29;20045;-47
2022/06/26 03:14:47;;;;;;;3.80;3.50;;;21.70;66.30;;;;;;4880090;29;20112;-46
2022/06/26 03:17:17;;;;;;;3.42;3.08;;;21.70;66.00;;;;;;4895618;29;20053;-49
2022/06/26 03:19:45;;;;;;;2.75;2.55;;;21.70;65.80;;;;;;4881256;29;20040;-47
2022/06/26 03:22:12;;;;;;;3.08;2.63;;;21.70;65.80;;;;;;4896385;29;20059;-47
2022/06/26 03:24:42;;;;;;;2.90;2.70;;;21.70;65.70;;;;;;4894983;29;20508;-47
2022/06/26 03:27:11;;;;;;;3.50;2.60;;;21.60;65.70;;;;;;4904615;29;20465;-46
2022/06/26 03:29:40;;;;;;;6.65;3.00;;;21.50;65.70;;;;;;4888412;29;20052;-50
2022/06/26 03:32:09;;;;;;;2.83;2.60;;;21.50;65.50;;;;;;4878910;29;20112;-47
2022/06/26 03:34:47;;;;;;;2.90;1.85;;;21.50;64.80;;;;;;4880716;29;20063;-49
2022/06/26 03:37:16;;;;;;;3.17;1.40;;;21.40;64.30;;;;;;4892844;29;20064;-52
2022/06/26 03:39:43;;;;;;;1.67;1.58;;;21.40;64.10;;;;;;4890980;29;20055;-51
2022/06/26 03:42:13;;;;;;;1.67;1.58;;;21.30;63.70;;;;;;4902769;29;20408;-48
2022/06/26 03:44:41;;;;;;;1.75;1.55;;;21.30;63.60;;;;;;4880469;29;20052;-51
2022/06/26 03:47:08;;;;;;;2.25;2.03;;;21.20;63.50;;;;;;4891903;29;20041;-50
2022/06/26 03:49:35;;;;;;;2.50;1.60;;;21.10;63.50;;;;;;4882317;29;20131;-52
2022/06/26 03:52:05;;;;;;;2.10;1.35;;;21.10;63.60;;;;;;4909029;29;20092;-49
2022/06/26 03:54:35;;;;;;;1.65;1.55;;;21.00;63.80;;;;;;4876922;29;20052;-48
2022/06/26 03:57:04;;;;;;;;;;;20.90;63.90;;;;;;4893638;29;20049;-50
2022/06/26 03:59:33;;;;;;;1.58;1.48;;;20.90;63.70;;;;;;4895497;29;19924;-49
2022/06/26 04:02:01;;;;;;;2.35;1.50;;;20.80;63.60;;;;;;4893027;29;20047;-48
2022/06/26 04:04:29;;;;;;;1.70;1.42;;;20.80;63.70;;;;;;4901143;29;20079;-50
2022/06/26 04:06:58;;;;;;;2.90;1.80;;;20.70;63.80;;;;;;4887689;29;20044;-49
2022/06/26 04:09:33;;;;;;;4.15;1.42;;;20.70;64.00;;;;;;4902304;29;20048;-47
2022/06/26 04:12:00;;;;;;;2.55;1.20;;;20.70;64.20;;;;;;4902646;29;20049;-50
2022/06/26 04:14:37;;;;;;;2.15;1.20;;;20.60;64.30;;;;;;4908107;29;20060;-52
2022/06/26 04:17:05;;;;;;;4.10;2.20;;;20.60;64.60;;;;;;4894158;29;20041;-48
2022/06/26 04:19:39;;;;;;;2.83;1.97;;;20.60;64.40;;;;;;4903683;29;20075;-48
2022/06/26 04:22:07;;;;;;;3.92;1.65;;;20.60;64.30;;;;;;4907749;29;20301;-53
2022/06/26 04:24:40;;;;;;;1.38;1.30;;;20.60;64.30;;;;;;4889933;29;20040;-48
2022/06/26 04:27:07;;;;;;;2.53;1.60;;;20.60;64.40;;;;;;4902931;29;20040;-48
2022/06/26 04:29:36;;;;;;;1.52;1.40;;;20.60;64.40;;;;;;4884916;29;20048;-52
2022/06/26 04:32:03;;;;;;;2.17;1.27;;;20.60;64.50;;;;;;4869908;29;20044;-49
2022/06/26 04:34:41;;;;;;;4.25;1.92;;;20.60;64.60;;;;;;4898856;29;20096;-49
2022/06/26 04:37:10;;;;;;;3.05;1.90;;;20.60;64.50;;;;;;4876504;29;20041;-48
2022/06/26 04:39:39;;;;;;;2.10;1.77;;;20.60;64.70;;;;;;4894635;29;20070;-47
2022/06/26 04:42:06;;;;;;;3.67;1.92;;;20.60;64.70;;;;;;4894271;29;20381;-47
2022/06/26 04:44:36;;;;;;;4.28;2.15;;;20.70;64.50;;;;;;4892718;29;20049;-50
2022/06/26 04:47:07;;;;;;;1.95;1.75;;;20.70;64.60;;;;;;4902443;29;20429;-48
2022/06/26 04:49:51;;;;;;;4.05;2.00;;;20.70;64.60;;;;;;4907146;29;20055;-51
2022/06/26 04:52:18;;;;;;;3.28;1.83;;;20.70;64.70;;;;;;4904372;29;20048;-53
2022/06/26 04:54:45;;;;;;;2.33;2.13;;;20.80;64.80;;;;;;4889782;29;20553;-48
2022/06/26 04:57:14;;;;;;;3.60;2.50;;;20.80;64.70;;;;;;4906636;29;20104;-50
2022/06/26 04:59:46;;;;;;;1.98;1.80;;;20.90;64.70;;;;;;4892819;29;20045;-49
2022/06/26 05:02:16;;;;;;;2.55;1.60;;;20.90;64.80;;;;;;4894091;29;20097;-48
2022/06/26 05:04:54;;;;;;;1.92;1.80;;;21.00;64.90;;;;;;4889232;29;20405;-49
2022/06/26 05:07:21;;;;;;;4.03;1.90;;;21.00;64.60;;;;;;4886281;29;20037;-48
2022/06/26 05:09:48;;;;;;;3.22;2.08;;;21.00;64.70;;;;;;4876050;29;20036;-53
2022/06/26 05:12:17;;;;;;;2.88;2.03;;;21.10;64.70;;;;;;4891599;29;20045;-48
2022/06/26 05:15:19;;;;;;;4.57;2.30;;;21.10;64.70;;;;;;4866470;29;20502;-52
2022/06/26 05:17:51;;;;;;;2.78;2.45;;;21.10;64.60;;;;;;4886950;29;20052;-48
2022/06/26 05:20:18;;;;;;;3.40;2.13;;;21.10;64.90;;;;;;4892002;29;20496;-51
2022/06/26 05:22:47;;;;;;;2.58;2.38;;;21.10;64.50;;;;;;4892130;29;20428;-52
2022/06/26 05:25:16;;;;;;;2.70;1.90;;;21.10;64.40;;;;;;4902034;29;20044;-51
2022/06/26 05:27:44;;;;;;;3.47;2.83;;;21.10;64.40;;;;;;4910622;29;20104;-53
2022/06/26 05:30:14;;;;;;;2.50;2.13;;;21.10;63.90;;;;;;4888094;29;20048;-48
2022/06/26 05:32:46;;;;;;;2.70;2.47;;;21.10;63.70;;;;;;4891429;29;20060;-51
2022/06/26 05:35:16;;;;;;;5.15;2.78;;;21.10;63.70;;;;;;4901814;29;20111;-50
2022/06/26 05:37:43;;;;;;;3.83;3.30;;;21.10;63.70;;;;;;4878889;29;20052;-52
2022/06/26 05:40:11;;;;;;;3.40;2.72;;;21.10;63.40;;;;;;4889565;29;20061;-52
2022/06/26 05:42:40;;;;;;;5.18;3.20;;;21.00;63.30;;;;;;4895582;29;20040;-51
2022/06/26 05:45:10;;;;;;;2.53;2.33;;;21.00;63.40;;;;;;4908901;29;20140;-49
2022/06/26 05:47:37;;;;;;;3.95;2.45;;;21.00;63.60;;;;;;4880108;29;20052;-52
2022/06/26 05:50:25;;;;;;;3.60;2.25;;;21.00;63.90;;;;;;4894352;29;20562;-52
2022/06/26 05:53:14;;;;;;;4.43;2.17;;;21.00;64.00;;;;;;4902754;29;20519;-52
2022/06/26 05:56:01;;;;;;;6.28;2.60;;;21.00;64.00;;;;;;4883607;29;20064;-53
2022/06/26 05:58:38;;;;;;;2.95;2.45;;;21.00;63.90;;;;;;4891346;29;20135;-51
2022/06/26 06:01:29;;;;;;;5.95;3.40;;;21.00;63.90;;;;;;4889589;29;20049;-49
2022/06/26 06:04:06;;;;;;;4.47;2.28;;;21.00;63.60;;;;;;4909154;29;20825;-52
2022/06/26 06:06:36;;;;;;;2.90;2.20;;;21.10;63.40;;;;;;4891680;29;20402;-51
2022/06/26 06:09:05;;;;;;;4.43;2.38;;;21.10;63.00;;;;;;4891811;29;20076;-51
2022/06/26 06:11:32;;;;;;;4.50;1.88;;;21.10;63.40;;;;;;4903338;29;20107;-53
2022/06/26 06:14:02;;;;;;;3.35;1.35;;;21.20;63.00;;;;;;4895837;29;20060;-53
2022/06/26 06:16:31;;;;;;;2.00;1.55;;;21.20;62.30;;;;;;4895306;29;20511;-51
2022/06/26 06:19:01;;;;;;;3.22;1.60;;;21.30;62.00;;;;;;4895685;29;20056;-53
2022/06/26 06:21:30;;;;;;;2.63;1.75;;;21.30;62.00;;;;;;4910297;29;20072;-49
2022/06/26 06:24:04;;;;;;;2.33;1.50;;;21.40;61.70;;;;;;4892304;29;20052;-50
2022/06/26 06:26:31;;;;;;;3.83;1.77;;;21.50;61.00;;;;;;4886084;29;21683;-50
2022/06/26 06:29:09;;;;;;;3.10;1.63;;;21.60;61.00;;;;;;4902156;29;20103;-52
2022/06/26 06:31:36;;;;;;;2.42;1.77;;;21.60;60.50;;;;;;4902723;29;20052;-50
2022/06/26 06:34:06;;;;;;;2.45;2.25;;;21.70;60.40;;;;;;4909420;29;20624;-51
2022/06/26 06:36:33;;;;;;;2.80;2.25;;;21.70;60.30;;;;;;4904890;29;20064;-52
2022/06/26 06:39:02;;;;;;;2.30;1.90;;;21.80;60.70;;;;;;4892447;29;20063;-50
2022/06/26 06:41:30;;;;;;;3.88;1.70;;;21.90;60.00;;;;;;4893204;29;20052;-52
2022/06/26 06:44:02;;;;;;;1.85;1.63;;;22.00;60.00;;;;;;4897364;29;20510;-51
2022/06/26 06:46:32;;;;;;;5.00;2.15;;;22.00;59.70;;;;;;4889490;29;20041;-53
2022/06/26 06:49:04;;;;;;;4.57;4.18;;;22.20;59.60;;;;;;4902998;29;20041;-49
2022/06/26 06:51:49;;;;;;;3.00;2.70;;;22.20;59.10;;;;;;4903008;29;20071;-51
2022/06/26 06:54:16;;;;;;;3.35;2.35;;;22.20;58.60;;;;;;4896230;29;20045;-49
2022/06/26 06:56:44;;;;;;;2.60;1.88;;;22.30;59.10;;;;;;4878533;29;20044;-48
2022/06/26 06:59:11;;;;;;;3.25;1.98;;;22.30;59.20;;;;;;4893573;29;20040;-53
2022/06/26 07:01:42;;;;;;;2.17;1.98;;;22.50;58.70;;;;;;4901730;29;20044;-53
2022/06/26 07:04:09;;;;;;;3.08;2.08;;;22.50;58.50;;;;;;4886957;29;20055;-53
2022/06/26 07:06:36;;;;;;;2.72;2.00;;;22.60;58.50;;;;;;4902824;29;20439;-53
2022/06/26 07:09:05;;;;;;;2.97;1.58;;;22.80;58.40;;;;;;4903615;29;20096;-49
2022/06/26 07:11:32;;;;;;;3.28;1.65;;;22.90;58.30;;;;;;4895998;29;20127;-50
2022/06/26 07:13:59;;;;;;;1.75;1.58;;;23.00;57.60;;;;;;4890510;29;20040;-52
2022/06/26 07:16:27;;;;;;;1.50;1.40;;;23.10;57.00;;;;;;4902635;29;20132;-49
2022/06/26 07:18:54;;;;;;;2.08;1.67;;;23.20;56.50;;;;;;4895967;29;20127;-51
2022/06/26 07:21:21;;;;;;;1.67;1.20;;;23.30;55.90;;;;;;4891416;29;20108;-51
2022/06/26 07:23:51;;;;;;;2.33;1.45;;;23.30;55.80;;;;;;4886482;29;20531;-47
2022/06/26 07:26:25;;;;;;;2.25;1.38;;;23.40;55.80;;;;;;4890407;29;20670;-51
2022/06/26 07:28:57;;;;;;;2.40;1.20;;;23.50;56.10;;;;;;4894924;29;20049;-52
2022/06/26 07:31:29;;;;;;;1.63;0.88;;;23.60;56.10;;;;;;4897539;29;20044;-49
2022/06/26 07:36:45;;;;;;;1.38;1.27;;;23.70;55.60;;;;;;4889748;29;20045;-51
2022/06/26 07:39:15;;;;;;;0.98;0.98;;;23.70;55.50;;;;;;4910764;29;20127;-50
2022/06/26 07:41:43;;;;;;;2.45;1.45;;;23.80;55.70;;;;;;4897394;29;20055;-49
2022/06/26 07:44:11;;;;;;;3.30;1.65;;;23.80;56.00;;;;;;4909031;29;20052;-51
2022/06/26 07:46:43;;;;;;;1.75;1.15;;;23.90;54.90;;;;;;4905967;29;20037;-51
2022/06/26 07:49:15;;;;;;;1.15;1.13;;;23.90;54.50;;;;;;4892695;29;20051;-49
2022/06/26 07:51:44;;;;;;;1.30;1.17;;;23.90;54.00;;;;;;4894333;29;20040;-50
2022/06/26 07:54:11;;;;;;;1.48;1.30;;;23.90;53.80;;;;;;4895663;29;20059;-50
2022/06/26 07:56:37;;;;;;;1.45;1.35;;;24.00;54.40;;;;;;4907311;29;20048;-49
2022/06/26 07:59:04;;;;;;;3.08;1.38;;;24.00;54.10;;;;;;4896355;29;20048;-51
2022/06/26 08:01:33;;;;;;;1.70;1.60;;;24.00;53.70;;;;;;4892306;29;20563;-50
2022/06/26 08:04:01;;;;;;;1.40;1.30;;;24.00;53.50;;;;;;4896881;29;20055;-51
2022/06/26 08:06:29;;;;;;;2.28;1.63;;;24.00;53.60;;;;;;4894987;29;20044;-52
2022/06/26 08:08:57;;;;;;;2.00;1.20;;;24.00;53.40;;;;;;4892253;29;20548;-49
2022/06/26 08:11:25;;;;;;;1.85;1.27;;;24.00;53.70;;;;;;4897274;29;20068;-52
2022/06/26 08:13:52;;;;;;;3.38;1.30;;;24.10;53.50;;;;;;4895699;29;20056;-49
2022/06/26 08:16:19;;;;;;;3.92;1.50;;;24.00;52.90;;;;;;4896066;29;20505;-50
2022/06/26 08:18:46;;;;;;;4.25;1.50;;;24.10;52.80;;;;;;4896854;29;20076;-48
2022/06/26 08:23:58;;;;;;;1.95;1.23;;;24.20;53.80;;;;;;4895426;29;20108;-48
2022/06/26 08:26:25;;;;;;;1.30;1.20;;;24.20;53.20;;;;;;4891891;29;20060;-51
2022/06/26 08:28:52;;;;;;;2.65;1.48;;;24.20;52.80;;;;;;4893310;29;20053;-51
2022/06/26 08:31:20;;;;;;;2.78;1.10;;;24.30;52.70;;;;;;4896088;29;20096;-49
2022/06/26 08:33:47;;;;;;;1.25;1.00;;;24.30;52.50;;;;;;4894209;29;20044;-51
2022/06/26 08:36:13;;;;;;;1.92;1.20;;;24.30;52.40;;;;;;4892118;29;20073;-48
2022/06/26 08:38:46;;;;;;;1.77;1.50;;;24.40;52.30;;;;;;4890755;29;20179;-50
2022/06/26 08:41:20;;;;;;;2.55;1.10;;;24.40;52.20;;;;;;4897941;29;20168;-48
2022/06/26 08:43:48;;;;;;;1.38;0.93;;;24.40;52.10;;;;;;4894838;29;20037;-52
2022/06/26 08:46:23;;;;;;;1.30;1.20;;;24.50;51.90;;;;;;4894601;29;20415;-49
2022/06/26 08:48:59;;;;;;;0.65;0.65;;;24.50;51.90;;;;;;4895555;29;20048;-47
2022/06/26 08:51:30;;;;;;;0.90;0.88;;;24.50;51.50;;;;;;4888584;29;20053;-47
2022/06/26 08:54:02;;;;;;;2.63;1.00;;;24.50;51.30;;;;;;4895457;29;20501;-47
2022/06/26 08:56:32;;;;;;;1.40;1.10;;;24.50;51.50;;;;;;4893257;29;20186;-48
2022/06/26 08:59:01;;;;;;;2.17;1.40;;;24.50;51.40;;;;;;4895101;29;20072;-48
2022/06/26 09:01:30;;;;;;;2.13;1.35;;;24.60;51.60;;;;;;4892370;29;20079;-49
2022/06/26 09:03:58;;;;;;;1.45;1.25;;;24.60;51.60;;;;;;4889796;29;20170;-48
2022/06/26 09:06:28;;;;;;;1.27;1.00;;;24.60;51.40;;;;;;4881763;29;20041;-47
2022/06/26 09:09:13;;;;;;;1.48;1.02;;;24.60;51.60;;;;;;4891770;29;20096;-47
2022/06/26 09:11:40;;;;;;;1.60;1.25;;;24.60;51.40;;;;;;4897321;29;20096;-47
2022/06/26 09:14:07;;;;;;;1.10;1.00;;;24.70;51.40;;;;;;4895645;29;20112;-48
2022/06/26 09:16:35;;;;;;;1.92;0.90;;;24.70;50.80;;;;;;4890657;29;20067;-46
2022/06/26 09:19:07;;;;;;;1.20;1.00;;;24.70;51.20;;;;;;4891335;29;20113;-48
2022/06/26 09:21:34;;;;;;;2.33;1.13;;;24.70;50.40;;;;;;4888846;29;20424;-48
2022/06/26 09:24:01;;;;;;;1.85;1.13;;;24.80;50.90;;;;;;4896863;29;20037;-47
2022/06/26 09:26:28;;;;;;;1.40;1.30;;;24.80;50.60;;;;;;4892270;29;20088;-47
2022/06/26 09:28:55;;;;;;;1.95;1.17;;;24.80;50.80;;;;;;4872325;23;1137814;-47
2022/06/26 09:31:22;;;;;;;2.08;1.23;;;24.90;51.70;;;;;;4917043;29;20151;-50
2022/06/26 09:33:49;;;;;;;1.50;1.00;;;24.90;51.10;;;;;;4914100;29;20044;-46
2022/06/26 09:36:18;;;;;;;3.03;1.15;;;25.00;50.70;;;;;;4916732;29;20103;-50
2022/06/26 09:38:49;;;;;;;1.27;0.90;;;25.00;50.60;;;;;;4917342;29;20048;-46
2022/06/26 09:41:16;;;;;;;2.20;1.10;;;25.10;50.40;;;;;;4916846;29;20052;-45
2022/06/26 09:43:44;;;;;;;3.03;1.00;;;25.10;50.10;;;;;;4913746;29;20408;-49
2022/06/26 09:46:16;;;;;;;1.67;1.00;;;25.10;49.70;;;;;;4917271;29;20044;-51
2022/06/26 09:48:43;;;;;;;1.25;0.93;;;25.10;50.30;;;;;;4916890;29;20063;-45
2022/06/26 09:51:10;;;;;;;2.60;1.00;;;25.10;50.00;;;;;;4916743;29;20044;-49
2022/06/26 09:53:39;;;;;;;1.73;1.25;;;25.00;49.20;;;;;;4915856;29;20044;-47
2022/06/26 09:56:07;;;;;;;1.52;1.00;;;25.10;49.10;;;;;;4908588;29;20449;-51
2022/06/26 09:58:34;;;;;;;2.78;1.27;;;24.90;49.40;;;;;;4916698;29;20112;-49
2022/06/26 10:06:36;;;;;;;1.42;1.05;;;24.80;50.30;;;;;;4926011;29;20405;-46
2022/06/26 10:09:06;;;;;;;1.60;1.23;;;24.70;50.20;;;;;;4924821;29;20136;-49
2022/06/26 10:11:35;;;;;;;3.15;1.52;;;24.70;50.70;;;;;;4909682;29;20040;-48
2022/06/26 10:14:30;;;;;;;2.08;1.75;;;24.70;50.80;;;;;;4920968;29;20098;-46
2022/06/26 10:17:05;;;;;;;2.42;1.10;;;24.70;50.60;;;;;;4915481;29;20041;-49
2022/06/26 10:19:49;;;;;;;3.42;1.33;;;24.70;50.60;;;;;;4914549;29;20159;-50
2022/06/26 10:22:16;;;;;;;1.42;1.02;;;24.60;51.00;;;;;;4914907;29;20075;-50
2022/06/26 10:25:00;;;;;;;2.20;1.10;;;24.60;51.20;;;;;;4910844;29;20044;-49
2022/06/26 10:27:32;;;;;;;1.33;0.90;;;24.50;51.30;;;;;;4910470;29;20048;-48
2022/06/26 10:30:24;;;;;;;1.67;1.30;;;24.50;51.90;;;;;;4901710;29;20107;-48
2022/06/26 10:33:13;;;;;;;1.85;1.52;;;24.50;51.80;;;;;;4911457;29;20062;-48
2022/06/26 10:35:49;;;;;;;0.88;0.82;;;24.50;52.10;;;;;;4911851;29;20048;-50
2022/06/26 10:38:18;;;;;;;3.33;1.20;;;24.40;52.40;;;;;;4917632;29;20468;-46
2022/06/26 10:43:43;;;;;;;1.52;1.20;;;24.40;51.60;;;;;;4915564;29;20044;-46
2022/06/26 10:46:12;;;;;;;1.63;1.30;;;24.40;50.30;;;;;;4901241;29;20103;-49
2022/06/26 10:48:50;;;;;;;3.78;1.27;;;24.30;50.60;;;;;;4918111;29;20040;-47
2022/06/26 10:51:24;;;;;;;1.55;0.80;;;24.30;50.50;;;;;;4916140;29;20044;-51
2022/06/26 10:53:51;;;;;;;1.75;1.38;;;24.30;50.40;;;;;;4916913;29;20048;-46
2022/06/26 10:56:18;;;;;;;2.83;0.98;;;24.30;51.30;;;;;;4914735;29;20044;-47
2022/06/26 10:58:45;;;;;;;1.38;1.20;;;24.30;51.80;;;;;;4913418;29;20044;-46
2022/06/26 11:01:13;;;;;;;2.17;1.55;;;24.20;52.20;;;;;;4921933;29;20052;-49
2022/06/26 11:03:41;;;;;;;2.10;1.20;;;24.20;52.20;;;;;;4915665;29;20095;-46
2022/06/26 11:06:15;;;;;;;1.40;1.15;;;24.10;52.90;;;;;;4928048;29;20058;-48
2022/06/26 11:08:48;;;;;;;1.30;1.20;;;24.10;53.20;;;;;;4920510;29;20044;-52
2022/06/26 11:11:17;;;;;;;1.40;1.30;;;24.00;53.50;;;;;;4926382;29;20196;-47
2022/06/26 11:13:54;;;;;;;1.30;1.20;;;24.00;54.40;;;;;;4931995;29;20483;-47
2022/06/26 11:16:34;;;;;;;2.83;1.30;;;24.00;54.30;;;;;;4924089;29;20048;-49
2022/06/26 11:19:04;;;;;;;2.88;1.58;;;24.10;54.90;;;;;;4923299;29;20062;-47
2022/06/26 11:21:32;;;;;;;2.50;1.20;;;24.10;54.60;;;;;;4928547;29;20130;-47
2022/06/26 11:24:00;;;;;;;2.95;1.33;;;24.20;54.40;;;;;;4927564;29;20078;-45
2022/06/26 11:26:27;;;;;;;2.33;1.52;;;24.20;54.80;;;;;;4912152;29;20032;-46
2022/06/26 11:29:00;;;;;;;1.33;1.23;;;24.30;54.50;;;;;;4911650;29;20683;-49
2022/06/26 11:31:31;;;;;;;1.35;1.20;;;24.30;54.30;;;;;;4914531;29;20044;-46
2022/06/26 11:34:09;;;;;;;1.35;1.10;;;24.50;53.70;;;;;;4915351;29;20044;-49
2022/06/26 11:36:47;;;;;;;2.10;1.30;;;24.50;53.50;;;;;;4908593;29;20549;-46
2022/06/26 11:39:13;;;;;;;1.45;1.00;;;24.50;53.40;;;;;;4912407;29;20431;-45
2022/06/26 11:41:40;;;;;;;2.42;1.50;;;24.60;53.90;;;;;;4923108;29;20044;-45
2022/06/26 11:44:07;;;;;;;3.17;1.70;;;24.60;54.10;;;;;;4924724;29;20047;-50
2022/06/26 11:46:34;;;;;;;4.20;1.48;;;24.60;53.60;;;;;;4923590;29;20040;-46
2022/06/26 11:49:00;;;;;;;2.92;1.50;;;24.70;54.00;;;;;;4923170;29;20123;-50
2022/06/26 11:51:34;;;;;;;1.77;0.93;;;24.70;53.40;;;;;;4930891;29;20036;-47
2022/06/26 11:54:01;;;;;;;1.45;1.02;;;24.90;53.90;;;;;;4915815;29;20749;-45
2022/06/26 11:56:29;;;;;;;3.03;1.05;;;25.00;53.90;;;;;;4907024;29;20115;-46
2022/06/26 11:58:58;;;;;;;1.60;1.17;;;25.10;53.80;;;;;;4914575;29;20464;-51
2022/06/26 12:01:33;;;;;;;1.70;1.02;;;25.30;52.90;;;;;;4915097;29;20059;-49
2022/06/26 12:04:00;;;;;;;1.38;0.93;;;25.40;52.20;;;;;;4911600;29;20393;-45
2022/06/26 12:06:29;;;;;;;2.35;0.88;;;25.60;52.60;;;;;;4914028;29;20115;-49
2022/06/26 12:09:20;;;;;;;2.45;1.17;;;25.70;52.40;;;;;;4914291;29;20036;-51
2022/06/26 12:11:55;;;;;;;1.48;0.90;;;25.90;51.80;;;;;;4916447;29;20690;-47
2022/06/26 12:14:24;;;;;;;3.28;1.10;;;26.00;51.40;;;;;;4908979;29;20161;-46
2022/06/26 12:17:04;;;;;;;1.42;0.90;;;26.20;51.40;;;;;;4913460;29;20092;-46
2022/06/26 12:19:38;;;;;;;2.78;0.98;;;26.30;50.30;;;;;;4895155;29;20052;-48
2022/06/26 12:22:06;;;;;;;1.65;1.08;;;26.40;50.10;;;;;;4903531;29;20131;-46
2022/06/26 12:24:33;;;;;;;2.55;0.98;;;26.50;49.90;;;;;;4908388;29;20032;-46
2022/06/26 12:27:01;;;;;;;2.97;1.13;;;26.60;49.80;;;;;;4906199;29;20044;-45
2022/06/26 12:29:33;;;;;;;2.38;1.33;;;26.60;49.30;;;;;;4913839;29;20040;-46
2022/06/26 12:32:00;;;;;;;0.80;0.77;;;26.60;48.90;;;;;;4908513;29;20052;-46
2022/06/26 12:34:26;;;;;;;1.25;0.88;;;26.60;48.90;;;;;;4915547;29;20047;-46
2022/06/26 12:36:53;;;;;;;1.65;1.13;;;26.60;48.70;;;;;;4916227;29;20448;-47
2022/06/26 12:39:20;;;;;;;1.42;0.95;;;26.60;48.60;;;;;;4911784;29;20047;-46
2022/06/26 12:42:07;;;;;;;0.85;0.70;;;26.60;48.00;;;;;;4910016;29;20039;-51
2022/06/26 12:44:34;;;;;;;1.08;0.98;;;26.60;47.40;;;;;;4913877;29;20054;-48
2022/06/26 12:47:01;;;;;;;3.47;1.45;;;26.60;47.50;;;;;;4913245;29;20096;-46
2022/06/26 12:49:27;;;;;;;1.48;1.00;;;26.70;47.40;;;;;;4911807;29;20036;-49
2022/06/26 12:51:54;;;;;;;1.38;0.90;;;26.80;47.70;;;;;;4915227;29;20551;-50
2022/06/26 12:54:21;;;;;;;1.75;0.88;;;26.90;46.80;;;;;;4913110;29;20048;-46
2022/06/26 12:56:48;;;;;;;1.00;0.80;;;27.00;46.20;;;;;;4912444;29;20750;-47
2022/06/26 12:59:14;;;;;;;2.30;1.00;;;27.20;46.20;;;;;;4910040;29;20060;-48
2022/06/26 13:01:41;;;;;;;1.75;1.15;;;27.30;46.50;;;;;;4914140;29;20499;-51
2022/06/26 13:04:08;;;;;;;1.65;0.80;;;27.50;45.80;;;;;;4918438;29;20115;-46
2022/06/26 13:06:35;;;;;;;9.60;1.95;;;27.60;45.30;;;;;;4913125;29;20044;-49
2022/06/26 13:09:01;;;;;;;1.55;0.90;;;27.70;45.90;;;;;;4911099;29;20133;-47
2022/06/26 13:11:28;;;;;;;1.08;0.88;;;27.80;45.50;;;;;;4913264;29;20036;-47
2022/06/26 13:13:55;;;;;;;1.73;0.77;;;27.80;45.20;;;;;;4896858;29;20051;-49
2022/06/26 13:16:38;;;;;;;;;;;27.80;44.60;;;;;;4909658;29;20044;-50
2022/06/26 13:19:06;;;;;;;1.42;1.10;;;27.90;45.10;;;;;;4911803;29;19923;-47
2022/06/26 13:21:34;;;;;;;2.53;1.33;;;27.90;44.50;;;;;;4913311;29;20052;-50